sensor_id;sensor_type;location;lat;lon;timestamp;P1;durP1;ratioP1;P2;durP2;ratioP2
52674;SDS011;38569;52.722;6.440;2022-08-18T00:01:40;0.45;;;0.45;;
52674;SDS011;38569;52.722;6.440;2022-08-18T00:04:08;0.10;;;0.10;;
52674;SDS011;38569;52.722;6.440;2022-08-18T00:06:35;0.40;;;0.40;;
52674;SDS011;38569;52.722;6.440;2022-08-18T00:09:03;1.05;;;0.73;;
52674;SDS011;38569;52.722;6.440;2022-08-18T00:11:31;1.25;;;1.00;;
52674;SDS011;38569;52.722;6.440;2022-08-18T00:14:00;0.10;;;0.10;;
52674;SDS011;38569;52.722;6.440;2022-08-18T00:16:25;0.43;;;0.40;;
52674;SDS011;38569;52.722;6.440;2022-08-18T00:18:51;0.17;;;0.17;;
52674;SDS011;38569;52.722;6.440;2022-08-18T00:21:17;0.03;;;0.03;;
52674;SDS011;38569;52.722;6.440;2022-08-18T00:23:43;0.10;;;0.10;;
52674;SDS011;38569;52.722;6.440;2022-08-18T00:26:09;1.10;;;1.00;;
52674;SDS011;38569;52.722;6.440;2022-08-18T00:28:34;3.72;;;2.17;;
52674;SDS011;38569;52.722;6.440;2022-08-18T00:31:00;0.40;;;0.28;;
52674;SDS011;38569;52.722;6.440;2022-08-18T00:33:28;0.00;;;0.00;;
52674;SDS011;38569;52.722;6.440;2022-08-18T00:35:53;0.00;;;0.00;;
52674;SDS011;38569;52.722;6.440;2022-08-18T00:38:20;0.05;;;0.05;;
52674;SDS011;38569;52.722;6.440;2022-08-18T00:40:47;0.20;;;0.20;;
52674;SDS011;38569;52.722;6.440;2022-08-18T00:43:24;0.00;;;0.00;;
52674;SDS011;38569;52.722;6.440;2022-08-18T00:46:06;0.35;;;0.35;;
52674;SDS011;38569;52.722;6.440;2022-08-18T00:48:43;0.10;;;0.10;;
52674;SDS011;38569;52.722;6.440;2022-08-18T00:51:11;0.25;;;0.25;;
52674;SDS011;38569;52.722;6.440;2022-08-18T00:56:22;0.47;;;0.30;;
52674;SDS011;38569;52.722;6.440;2022-08-18T00:58:54;1.35;;;0.28;;
52674;SDS011;38569;52.722;6.440;2022-08-18T01:01:28;0.50;;;0.50;;
52674;SDS011;38569;52.722;6.440;2022-08-18T01:03:59;0.00;;;0.00;;
52674;SDS011;38569;52.722;6.440;2022-08-18T01:06:41;0.10;;;0.10;;
52674;SDS011;38569;52.722;6.440;2022-08-18T01:09:15;0.75;;;0.25;;
52674;SDS011;38569;52.722;6.440;2022-08-18T01:11:41;0.68;;;0.38;;
52674;SDS011;38569;52.722;6.440;2022-08-18T01:14:09;0.22;;;0.22;;
52674;SDS011;38569;52.722;6.440;2022-08-18T01:16:36;0.15;;;0.15;;
52674;SDS011;38569;52.722;6.440;2022-08-18T01:19:20;0.93;;;0.52;;
52674;SDS011;38569;52.722;6.440;2022-08-18T01:22:15;0.00;;;0.00;;
52674;SDS011;38569;52.722;6.440;2022-08-18T01:24:44;0.15;;;0.15;;
52674;SDS011;38569;52.722;6.440;2022-08-18T01:27:28;0.05;;;0.05;;
52674;SDS011;38569;52.722;6.440;2022-08-18T01:29:56;0.20;;;0.20;;
52674;SDS011;38569;52.722;6.440;2022-08-18T01:32:28;0.00;;;0.00;;
52674;SDS011;38569;52.722;6.440;2022-08-18T01:34:54;0.20;;;0.20;;
52674;SDS011;38569;52.722;6.440;2022-08-18T01:37:21;0.52;;;0.32;;
52674;SDS011;38569;52.722;6.440;2022-08-18T01:39:48;0.35;;;0.32;;
52674;SDS011;38569;52.722;6.440;2022-08-18T01:42:15;0.00;;;0.00;;
52674;SDS011;38569;52.722;6.440;2022-08-18T01:44:42;1.17;;;0.22;;
52674;SDS011;38569;52.722;6.440;2022-08-18T01:47:09;0.00;;;0.00;;
52674;SDS011;38569;52.722;6.440;2022-08-18T01:49:36;0.30;;;0.30;;
52674;SDS011;38569;52.722;6.440;2022-08-18T01:52:03;0.25;;;0.25;;
52674;SDS011;38569;52.722;6.440;2022-08-18T01:54:30;0.00;;;0.00;;
52674;SDS011;38569;52.722;6.440;2022-08-18T01:56:57;0.10;;;0.10;;
52674;SDS011;38569;52.722;6.440;2022-08-18T01:59:23;0.00;;;0.00;;
52674;SDS011;38569;52.722;6.440;2022-08-18T02:01:49;0.25;;;0.25;;
52674;SDS011;38569;52.722;6.440;2022-08-18T02:04:20;1.90;;;0.90;;
52674;SDS011;38569;52.722;6.440;2022-08-18T02:06:52;0.45;;;0.45;;
52674;SDS011;38569;52.722;6.440;2022-08-18T02:09:18;0.43;;;0.35;;
52674;SDS011;38569;52.722;6.440;2022-08-18T02:11:43;0.00;;;0.00;;
52674;SDS011;38569;52.722;6.440;2022-08-18T02:14:09;0.00;;;0.00;;
52674;SDS011;38569;52.722;6.440;2022-08-18T02:16:35;0.00;;;0.00;;
52674;SDS011;38569;52.722;6.440;2022-08-18T02:19:00;0.00;;;0.00;;
52674;SDS011;38569;52.722;6.440;2022-08-18T02:21:26;0.20;;;0.15;;
52674;SDS011;38569;52.722;6.440;2022-08-18T02:23:51;0.10;;;0.10;;
52674;SDS011;38569;52.722;6.440;2022-08-18T02:26:17;14.02;;;1.08;;
52674;SDS011;38569;52.722;6.440;2022-08-18T02:28:43;0.10;;;0.10;;
52674;SDS011;38569;52.722;6.440;2022-08-18T02:31:17;2.65;;;0.93;;
52674;SDS011;38569;52.722;6.440;2022-08-18T02:33:45;0.00;;;0.00;;
52674;SDS011;38569;52.722;6.440;2022-08-18T02:36:11;0.00;;;0.00;;
52674;SDS011;38569;52.722;6.440;2022-08-18T02:38:38;0.10;;;0.10;;
52674;SDS011;38569;52.722;6.440;2022-08-18T02:41:05;0.00;;;0.00;;
52674;SDS011;38569;52.722;6.440;2022-08-18T02:43:33;0.90;;;0.45;;
52674;SDS011;38569;52.722;6.440;2022-08-18T02:46:00;0.10;;;0.10;;
52674;SDS011;38569;52.722;6.440;2022-08-18T02:48:26;0.00;;;0.00;;
52674;SDS011;38569;52.722;6.440;2022-08-18T02:51:07;0.35;;;0.35;;
52674;SDS011;38569;52.722;6.440;2022-08-18T02:53:39;0.10;;;0.10;;
52674;SDS011;38569;52.722;6.440;2022-08-18T02:59:02;0.05;;;0.05;;
52674;SDS011;38569;52.722;6.440;2022-08-18T03:01:31;0.00;;;0.00;;
52674;SDS011;38569;52.722;6.440;2022-08-18T03:03:59;0.00;;;0.00;;
52674;SDS011;38569;52.722;6.440;2022-08-18T03:06:25;0.10;;;0.10;;
52674;SDS011;38569;52.722;6.440;2022-08-18T03:08:53;0.00;;;0.00;;
52674;SDS011;38569;52.722;6.440;2022-08-18T03:11:23;0.30;;;0.30;;
52674;SDS011;38569;52.722;6.440;2022-08-18T03:13:50;0.13;;;0.13;;
52674;SDS011;38569;52.722;6.440;2022-08-18T03:16:16;0.00;;;0.00;;
52674;SDS011;38569;52.722;6.440;2022-08-18T03:18:42;0.00;;;0.00;;
52674;SDS011;38569;52.722;6.440;2022-08-18T03:21:11;0.17;;;0.17;;
52674;SDS011;38569;52.722;6.440;2022-08-18T03:23:39;0.00;;;0.00;;
52674;SDS011;38569;52.722;6.440;2022-08-18T03:26:06;0.00;;;0.00;;
52674;SDS011;38569;52.722;6.440;2022-08-18T03:28:42;0.20;;;0.20;;
52674;SDS011;38569;52.722;6.440;2022-08-18T03:31:11;0.13;;;0.13;;
52674;SDS011;38569;52.722;6.440;2022-08-18T03:33:38;0.00;;;0.00;;
52674;SDS011;38569;52.722;6.440;2022-08-18T03:36:07;0.00;;;0.00;;
52674;SDS011;38569;52.722;6.440;2022-08-18T03:38:36;0.00;;;0.00;;
52674;SDS011;38569;52.722;6.440;2022-08-18T03:41:02;0.00;;;0.00;;
52674;SDS011;38569;52.722;6.440;2022-08-18T03:43:30;0.00;;;0.00;;
52674;SDS011;38569;52.722;6.440;2022-08-18T03:46:03;0.10;;;0.10;;
52674;SDS011;38569;52.722;6.440;2022-08-18T03:48:31;0.28;;;0.28;;
52674;SDS011;38569;52.722;6.440;2022-08-18T03:51:04;0.00;;;0.00;;
52674;SDS011;38569;52.722;6.440;2022-08-18T03:53:32;0.10;;;0.10;;
52674;SDS011;38569;52.722;6.440;2022-08-18T03:55:59;0.10;;;0.10;;
52674;SDS011;38569;52.722;6.440;2022-08-18T03:58:25;0.10;;;0.10;;
52674;SDS011;38569;52.722;6.440;2022-08-18T04:00:51;0.00;;;0.00;;
52674;SDS011;38569;52.722;6.440;2022-08-18T04:03:17;0.50;;;0.40;;
52674;SDS011;38569;52.722;6.440;2022-08-18T04:05:43;0.35;;;0.35;;
52674;SDS011;38569;52.722;6.440;2022-08-18T04:08:09;2.03;;;0.20;;
52674;SDS011;38569;52.722;6.440;2022-08-18T04:10:35;0.43;;;0.43;;
52674;SDS011;38569;52.722;6.440;2022-08-18T04:13:01;0.00;;;0.00;;
52674;SDS011;38569;52.722;6.440;2022-08-18T04:15:29;0.10;;;0.10;;
52674;SDS011;38569;52.722;6.440;2022-08-18T04:17:59;0.20;;;0.20;;
52674;SDS011;38569;52.722;6.440;2022-08-18T04:20:28;0.20;;;0.20;;
52674;SDS011;38569;52.722;6.440;2022-08-18T04:22:57;0.10;;;0.10;;
52674;SDS011;38569;52.722;6.440;2022-08-18T04:25:23;0.00;;;0.00;;
52674;SDS011;38569;52.722;6.440;2022-08-18T04:27:50;0.50;;;0.50;;
52674;SDS011;38569;52.722;6.440;2022-08-18T04:30:15;0.00;;;0.00;;
52674;SDS011;38569;52.722;6.440;2022-08-18T04:32:42;0.00;;;0.00;;
52674;SDS011;38569;52.722;6.440;2022-08-18T04:35:08;0.63;;;0.63;;
52674;SDS011;38569;52.722;6.440;2022-08-18T04:37:35;2.72;;;1.00;;
52674;SDS011;38569;52.722;6.440;2022-08-18T04:40:03;0.30;;;0.30;;
52674;SDS011;38569;52.722;6.440;2022-08-18T04:42:29;0.10;;;0.10;;
52674;SDS011;38569;52.722;6.440;2022-08-18T04:44:54;0.00;;;0.00;;
52674;SDS011;38569;52.722;6.440;2022-08-18T04:47:22;0.00;;;0.00;;
52674;SDS011;38569;52.722;6.440;2022-08-18T04:49:47;0.10;;;0.10;;
52674;SDS011;38569;52.722;6.440;2022-08-18T04:52:15;0.45;;;0.35;;
52674;SDS011;38569;52.722;6.440;2022-08-18T04:54:59;0.05;;;0.05;;
52674;SDS011;38569;52.722;6.440;2022-08-18T04:57:26;0.25;;;0.25;;
52674;SDS011;38569;52.722;6.440;2022-08-18T04:59:53;0.32;;;0.32;;
52674;SDS011;38569;52.722;6.440;2022-08-18T05:02:19;0.10;;;0.10;;
52674;SDS011;38569;52.722;6.440;2022-08-18T05:04:45;0.00;;;0.00;;
52674;SDS011;38569;52.722;6.440;2022-08-18T05:07:12;0.30;;;0.30;;
52674;SDS011;38569;52.722;6.440;2022-08-18T05:09:39;0.40;;;0.40;;
52674;SDS011;38569;52.722;6.440;2022-08-18T05:12:08;0.50;;;0.50;;
52674;SDS011;38569;52.722;6.440;2022-08-18T05:14:38;0.90;;;0.57;;
52674;SDS011;38569;52.722;6.440;2022-08-18T05:17:08;0.00;;;0.00;;
52674;SDS011;38569;52.722;6.440;2022-08-18T05:19:34;0.20;;;0.20;;
52674;SDS011;38569;52.722;6.440;2022-08-18T05:22:00;0.63;;;0.63;;
52674;SDS011;38569;52.722;6.440;2022-08-18T05:24:27;0.00;;;0.00;;
52674;SDS011;38569;52.722;6.440;2022-08-18T05:26:53;0.10;;;0.10;;
52674;SDS011;38569;52.722;6.440;2022-08-18T05:29:20;0.43;;;0.43;;
52674;SDS011;38569;52.722;6.440;2022-08-18T05:31:50;0.10;;;0.10;;
52674;SDS011;38569;52.722;6.440;2022-08-18T05:34:18;0.00;;;0.00;;
52674;SDS011;38569;52.722;6.440;2022-08-18T05:39:26;0.00;;;0.00;;
52674;SDS011;38569;52.722;6.440;2022-08-18T05:42:12;0.30;;;0.28;;
52674;SDS011;38569;52.722;6.440;2022-08-18T05:44:45;0.22;;;0.22;;
52674;SDS011;38569;52.722;6.440;2022-08-18T05:47:18;0.13;;;0.10;;
52674;SDS011;38569;52.722;6.440;2022-08-18T05:49:50;1.33;;;0.95;;
52674;SDS011;38569;52.722;6.440;2022-08-18T05:52:39;0.17;;;0.13;;
52674;SDS011;38569;52.722;6.440;2022-08-18T05:55:19;0.47;;;0.47;;
52674;SDS011;38569;52.722;6.440;2022-08-18T05:58:16;0.03;;;0.03;;
52674;SDS011;38569;52.722;6.440;2022-08-18T06:00:50;3.67;;;2.15;;
52674;SDS011;38569;52.722;6.440;2022-08-18T06:03:23;0.70;;;0.70;;
52674;SDS011;38569;52.722;6.440;2022-08-18T06:05:55;0.13;;;0.13;;
52674;SDS011;38569;52.722;6.440;2022-08-18T06:08:30;1.40;;;1.30;;
52674;SDS011;38569;52.722;6.440;2022-08-18T06:11:02;0.30;;;0.30;;
52674;SDS011;38569;52.722;6.440;2022-08-18T06:13:28;0.10;;;0.10;;
52674;SDS011;38569;52.722;6.440;2022-08-18T06:16:11;0.75;;;0.40;;
52674;SDS011;38569;52.722;6.440;2022-08-18T06:40:45;0.22;;;0.22;;
52674;SDS011;38569;52.722;6.440;2022-08-18T06:43:12;0.28;;;0.17;;
52674;SDS011;38569;52.722;6.440;2022-08-18T06:45:41;0.32;;;0.32;;
52674;SDS011;38569;52.722;6.440;2022-08-18T06:48:31;0.63;;;0.63;;
52674;SDS011;38569;52.722;6.440;2022-08-18T06:51:07;0.28;;;0.28;;
52674;SDS011;38569;52.722;6.440;2022-08-18T06:53:50;0.00;;;0.00;;
52674;SDS011;38569;52.722;6.440;2022-08-18T06:56:25;0.47;;;0.32;;
52674;SDS011;38569;52.722;6.440;2022-08-18T06:59:12;0.35;;;0.35;;
52674;SDS011;38569;52.722;6.440;2022-08-18T07:01:54;0.75;;;0.75;;
52674;SDS011;38569;52.722;6.440;2022-08-18T07:04:42;0.05;;;0.05;;
52674;SDS011;38569;52.722;6.440;2022-08-18T07:09:58;0.88;;;0.75;;
52674;SDS011;38569;52.722;6.440;2022-08-18T07:12:25;0.10;;;0.10;;
52674;SDS011;38569;52.722;6.440;2022-08-18T07:14:54;0.13;;;0.13;;
52674;SDS011;38569;52.722;6.440;2022-08-18T07:22:50;0.10;;;0.10;;
52674;SDS011;38569;52.722;6.440;2022-08-18T07:26:00;4.38;;;1.08;;
52674;SDS011;38569;52.722;6.440;2022-08-18T07:28:28;0.30;;;0.22;;
52674;SDS011;38569;52.722;6.440;2022-08-18T07:31:08;0.22;;;0.22;;
52674;SDS011;38569;52.722;6.440;2022-08-18T07:33:35;0.08;;;0.08;;
52674;SDS011;38569;52.722;6.440;2022-08-18T07:36:02;0.50;;;0.35;;
52674;SDS011;38569;52.722;6.440;2022-08-18T07:41:05;0.03;;;0.03;;
52674;SDS011;38569;52.722;6.440;2022-08-18T07:48:54;0.30;;;0.30;;
52674;SDS011;38569;52.722;6.440;2022-08-18T07:51:24;0.00;;;0.00;;
52674;SDS011;38569;52.722;6.440;2022-08-18T07:59:28;0.00;;;0.00;;
52674;SDS011;38569;52.722;6.440;2022-08-18T08:05:00;0.32;;;0.28;;
52674;SDS011;38569;52.722;6.440;2022-08-18T08:07:58;0.20;;;0.20;;
52674;SDS011;38569;52.722;6.440;2022-08-18T08:10:42;1.10;;;0.93;;
52674;SDS011;38569;52.722;6.440;2022-08-18T08:16:19;0.08;;;0.08;;
52674;SDS011;38569;52.722;6.440;2022-08-18T08:19:09;0.00;;;0.00;;
52674;SDS011;38569;52.722;6.440;2022-08-18T08:21:59;0.03;;;0.03;;
52674;SDS011;38569;52.722;6.440;2022-08-18T08:24:33;0.10;;;0.10;;
52674;SDS011;38569;52.722;6.440;2022-08-18T08:30:09;0.00;;;0.00;;
52674;SDS011;38569;52.722;6.440;2022-08-18T08:32:43;0.40;;;0.40;;
52674;SDS011;38569;52.722;6.440;2022-08-18T08:38:24;0.43;;;0.40;;
52674;SDS011;38569;52.722;6.440;2022-08-18T08:41:07;0.25;;;0.25;;
52674;SDS011;38569;52.722;6.440;2022-08-18T08:43:52;0.00;;;0.00;;
52674;SDS011;38569;52.722;6.440;2022-08-18T08:46:33;0.15;;;0.15;;
52674;SDS011;38569;52.722;6.440;2022-08-18T08:51:54;0.00;;;0.00;;
52674;SDS011;38569;52.722;6.440;2022-08-18T08:54:43;0.03;;;0.03;;
52674;SDS011;38569;52.722;6.440;2022-08-18T08:57:17;0.50;;;0.45;;
52674;SDS011;38569;52.722;6.440;2022-08-18T08:59:46;6.35;;;1.60;;
52674;SDS011;38569;52.722;6.440;2022-08-18T09:02:21;0.85;;;0.30;;
52674;SDS011;38569;52.722;6.440;2022-08-18T09:05:06;0.30;;;0.30;;
52674;SDS011;38569;52.722;6.440;2022-08-18T09:19:05;0.47;;;0.47;;
52674;SDS011;38569;52.722;6.440;2022-08-18T09:21:51;0.00;;;0.00;;
52674;SDS011;38569;52.722;6.440;2022-08-18T09:24:37;0.85;;;0.60;;
52674;SDS011;38569;52.722;6.440;2022-08-18T09:27:14;0.13;;;0.13;;
52674;SDS011;38569;52.722;6.440;2022-08-18T09:29:55;0.00;;;0.00;;
52674;SDS011;38569;52.722;6.440;2022-08-18T09:35:06;0.13;;;0.13;;
52674;SDS011;38569;52.722;6.440;2022-08-18T09:37:58;0.45;;;0.45;;
52674;SDS011;38569;52.722;6.440;2022-08-18T09:40:51;0.00;;;0.00;;
52674;SDS011;38569;52.722;6.440;2022-08-18T09:46:59;0.00;;;0.00;;
52674;SDS011;38569;52.722;6.440;2022-08-18T09:52:46;0.17;;;0.17;;
52674;SDS011;38569;52.722;6.440;2022-08-18T09:59:56;0.10;;;0.10;;
52674;SDS011;38569;52.722;6.440;2022-08-18T10:05:21;0.00;;;0.00;;
52674;SDS011;38569;52.722;6.440;2022-08-18T10:19:10;0.45;;;0.35;;
52674;SDS011;38569;52.722;6.440;2022-08-18T10:24:22;4.50;;;1.63;;
52674;SDS011;38569;52.722;6.440;2022-08-18T10:27:06;3.80;;;1.50;;
52674;SDS011;38569;52.722;6.440;2022-08-18T10:37:18;3.97;;;1.67;;
52674;SDS011;38569;52.722;6.440;2022-08-18T10:40:15;4.30;;;1.88;;
52674;SDS011;38569;52.722;6.440;2022-08-18T10:42:51;5.23;;;1.63;;
52674;SDS011;38569;52.722;6.440;2022-08-18T10:45:27;5.25;;;2.00;;
52674;SDS011;38569;52.722;6.440;2022-08-18T10:48:31;6.90;;;2.05;;
52674;SDS011;38569;52.722;6.440;2022-08-18T10:56:28;4.05;;;1.60;;
52674;SDS011;38569;52.722;6.440;2022-08-18T11:01:42;3.58;;;1.50;;
52674;SDS011;38569;52.722;6.440;2022-08-18T11:04:30;3.73;;;1.33;;
52674;SDS011;38569;52.722;6.440;2022-08-18T11:07:09;3.13;;;1.20;;
52674;SDS011;38569;52.722;6.440;2022-08-18T11:09:40;2.75;;;1.42;;
52674;SDS011;38569;52.722;6.440;2022-08-18T11:12:07;2.55;;;1.27;;
52674;SDS011;38569;52.722;6.440;2022-08-18T11:17:22;2.63;;;1.27;;
52674;SDS011;38569;52.722;6.440;2022-08-18T11:20:12;3.70;;;1.35;;
52674;SDS011;38569;52.722;6.440;2022-08-18T11:22:51;1.77;;;1.13;;
52674;SDS011;38569;52.722;6.440;2022-08-18T11:25:22;3.38;;;1.25;;
52674;SDS011;38569;52.722;6.440;2022-08-18T11:27:52;3.00;;;1.10;;
52674;SDS011;38569;52.722;6.440;2022-08-18T11:30:18;2.47;;;1.35;;
52674;SDS011;38569;52.722;6.440;2022-08-18T11:32:45;4.45;;;1.40;;
52674;SDS011;38569;52.722;6.440;2022-08-18T11:35:20;2.90;;;1.42;;
52674;SDS011;38569;52.722;6.440;2022-08-18T11:37:57;2.35;;;1.05;;
52674;SDS011;38569;52.722;6.440;2022-08-18T11:40:28;2.72;;;1.10;;
52674;SDS011;38569;52.722;6.440;2022-08-18T11:59:02;2.30;;;1.37;;
52674;SDS011;38569;52.722;6.440;2022-08-18T12:04:06;2.60;;;1.00;;
52674;SDS011;38569;52.722;6.440;2022-08-18T12:09:23;3.15;;;1.40;;
52674;SDS011;38569;52.722;6.440;2022-08-18T12:11:54;2.60;;;1.38;;
52674;SDS011;38569;52.722;6.440;2022-08-18T12:14:24;3.10;;;1.17;;
52674;SDS011;38569;52.722;6.440;2022-08-18T12:16:51;4.05;;;1.40;;
52674;SDS011;38569;52.722;6.440;2022-08-18T12:19:18;2.53;;;1.30;;
52674;SDS011;38569;52.722;6.440;2022-08-18T12:21:52;2.70;;;1.52;;
52674;SDS011;38569;52.722;6.440;2022-08-18T12:24:21;5.07;;;1.48;;
52674;SDS011;38569;52.722;6.440;2022-08-18T12:26:49;3.95;;;1.67;;
52674;SDS011;38569;52.722;6.440;2022-08-18T12:29:15;4.90;;;1.83;;
52674;SDS011;38569;52.722;6.440;2022-08-18T12:31:46;3.88;;;1.95;;
52674;SDS011;38569;52.722;6.440;2022-08-18T12:34:15;1.83;;;1.13;;
52674;SDS011;38569;52.722;6.440;2022-08-18T12:36:41;2.85;;;1.10;;
52674;SDS011;38569;52.722;6.440;2022-08-18T12:39:07;2.15;;;1.00;;
52674;SDS011;38569;52.722;6.440;2022-08-18T12:41:33;2.28;;;1.35;;
52674;SDS011;38569;52.722;6.440;2022-08-18T12:43:58;3.13;;;1.13;;
52674;SDS011;38569;52.722;6.440;2022-08-18T12:46:24;5.63;;;1.52;;
52674;SDS011;38569;52.722;6.440;2022-08-18T12:48:50;5.40;;;1.65;;
52674;SDS011;38569;52.722;6.440;2022-08-18T12:51:16;3.83;;;1.30;;
52674;SDS011;38569;52.722;6.440;2022-08-18T12:53:42;2.05;;;1.20;;
52674;SDS011;38569;52.722;6.440;2022-08-18T12:56:14;3.03;;;1.67;;
52674;SDS011;38569;52.722;6.440;2022-08-18T12:58:44;4.07;;;1.58;;
52674;SDS011;38569;52.722;6.440;2022-08-18T13:01:09;3.25;;;1.50;;
52674;SDS011;38569;52.722;6.440;2022-08-18T13:03:35;6.20;;;2.22;;
52674;SDS011;38569;52.722;6.440;2022-08-18T13:06:00;2.25;;;1.33;;
52674;SDS011;38569;52.722;6.440;2022-08-18T13:08:26;4.22;;;1.60;;
52674;SDS011;38569;52.722;6.440;2022-08-18T13:10:52;5.95;;;1.67;;
52674;SDS011;38569;52.722;6.440;2022-08-18T13:13:18;2.80;;;1.70;;
52674;SDS011;38569;52.722;6.440;2022-08-18T13:15:44;2.25;;;1.30;;
52674;SDS011;38569;52.722;6.440;2022-08-18T13:18:11;4.32;;;1.40;;
52674;SDS011;38569;52.722;6.440;2022-08-18T13:20:38;3.13;;;1.65;;
52674;SDS011;38569;52.722;6.440;2022-08-18T13:23:04;4.85;;;1.27;;
52674;SDS011;38569;52.722;6.440;2022-08-18T13:25:30;2.65;;;1.23;;
52674;SDS011;38569;52.722;6.440;2022-08-18T13:27:56;1.42;;;1.23;;
52674;SDS011;38569;52.722;6.440;2022-08-18T13:30:22;2.22;;;1.25;;
52674;SDS011;38569;52.722;6.440;2022-08-18T13:32:48;1.95;;;1.50;;
52674;SDS011;38569;52.722;6.440;2022-08-18T13:35:15;3.83;;;1.40;;
52674;SDS011;38569;52.722;6.440;2022-08-18T13:37:41;3.03;;;1.45;;
52674;SDS011;38569;52.722;6.440;2022-08-18T13:40:07;2.53;;;1.75;;
52674;SDS011;38569;52.722;6.440;2022-08-18T13:42:47;3.45;;;1.45;;
52674;SDS011;38569;52.722;6.440;2022-08-18T13:45:18;3.67;;;1.58;;
52674;SDS011;38569;52.722;6.440;2022-08-18T13:47:46;3.72;;;1.83;;
52674;SDS011;38569;52.722;6.440;2022-08-18T13:50:13;4.18;;;1.80;;
52674;SDS011;38569;52.722;6.440;2022-08-18T13:52:40;3.53;;;1.38;;
52674;SDS011;38569;52.722;6.440;2022-08-18T13:55:11;4.85;;;1.40;;
52674;SDS011;38569;52.722;6.440;2022-08-18T13:57:39;3.03;;;1.50;;
52674;SDS011;38569;52.722;6.440;2022-08-18T14:00:12;2.50;;;1.48;;
52674;SDS011;38569;52.722;6.440;2022-08-18T14:02:40;2.35;;;1.27;;
52674;SDS011;38569;52.722;6.440;2022-08-18T14:05:07;2.50;;;1.27;;
52674;SDS011;38569;52.722;6.440;2022-08-18T14:07:34;3.30;;;1.13;;
52674;SDS011;38569;52.722;6.440;2022-08-18T14:10:01;2.53;;;1.67;;
52674;SDS011;38569;52.722;6.440;2022-08-18T14:12:28;2.70;;;1.13;;
52674;SDS011;38569;52.722;6.440;2022-08-18T14:14:54;2.05;;;1.38;;
52674;SDS011;38569;52.722;6.440;2022-08-18T14:17:21;2.10;;;1.15;;
52674;SDS011;38569;52.722;6.440;2022-08-18T14:19:52;3.42;;;1.55;;
52674;SDS011;38569;52.722;6.440;2022-08-18T14:22:36;3.03;;;1.20;;
52674;SDS011;38569;52.722;6.440;2022-08-18T14:25:20;2.75;;;1.52;;
52674;SDS011;38569;52.722;6.440;2022-08-18T14:28:05;2.33;;;1.40;;
52674;SDS011;38569;52.722;6.440;2022-08-18T14:30:32;3.65;;;1.40;;
52674;SDS011;38569;52.722;6.440;2022-08-18T14:32:59;2.75;;;1.67;;
52674;SDS011;38569;52.722;6.440;2022-08-18T14:35:25;3.42;;;1.20;;
52674;SDS011;38569;52.722;6.440;2022-08-18T14:37:50;5.25;;;1.50;;
52674;SDS011;38569;52.722;6.440;2022-08-18T14:40:16;3.65;;;1.60;;
52674;SDS011;38569;52.722;6.440;2022-08-18T14:42:44;3.22;;;1.42;;
52674;SDS011;38569;52.722;6.440;2022-08-18T14:45:10;2.92;;;1.27;;
52674;SDS011;38569;52.722;6.440;2022-08-18T14:47:38;2.28;;;1.58;;
52674;SDS011;38569;52.722;6.440;2022-08-18T14:50:06;4.85;;;1.23;;
52674;SDS011;38569;52.722;6.440;2022-08-18T14:52:37;3.80;;;1.60;;
52674;SDS011;38569;52.722;6.440;2022-08-18T14:55:03;3.28;;;1.65;;
52674;SDS011;38569;52.722;6.440;2022-08-18T14:57:30;3.65;;;1.38;;
52674;SDS011;38569;52.722;6.440;2022-08-18T14:59:55;2.42;;;1.40;;
52674;SDS011;38569;52.722;6.440;2022-08-18T15:02:21;2.78;;;1.30;;
52674;SDS011;38569;52.722;6.440;2022-08-18T15:04:47;1.90;;;1.25;;
52674;SDS011;38569;52.722;6.440;2022-08-18T15:07:12;3.05;;;1.48;;
52674;SDS011;38569;52.722;6.440;2022-08-18T15:09:38;3.40;;;1.48;;
52674;SDS011;38569;52.722;6.440;2022-08-18T15:12:04;5.47;;;1.60;;
52674;SDS011;38569;52.722;6.440;2022-08-18T15:14:31;1.70;;;0.95;;
52674;SDS011;38569;52.722;6.440;2022-08-18T15:16:58;2.15;;;1.20;;
52674;SDS011;38569;52.722;6.440;2022-08-18T15:19:26;1.90;;;0.95;;
52674;SDS011;38569;52.722;6.440;2022-08-18T15:21:51;2.20;;;1.50;;
52674;SDS011;38569;52.722;6.440;2022-08-18T15:24:39;4.57;;;1.73;;
52674;SDS011;38569;52.722;6.440;2022-08-18T15:27:29;2.20;;;1.33;;
52674;SDS011;38569;52.722;6.440;2022-08-18T15:29:56;2.22;;;1.35;;
52674;SDS011;38569;52.722;6.440;2022-08-18T15:32:22;3.28;;;1.60;;
52674;SDS011;38569;52.722;6.440;2022-08-18T15:34:48;2.65;;;1.42;;
52674;SDS011;38569;52.722;6.440;2022-08-18T15:37:16;3.58;;;1.38;;
52674;SDS011;38569;52.722;6.440;2022-08-18T15:39:42;3.03;;;1.50;;
52674;SDS011;38569;52.722;6.440;2022-08-18T15:42:09;2.50;;;1.67;;
52674;SDS011;38569;52.722;6.440;2022-08-18T15:44:36;4.70;;;2.35;;
52674;SDS011;38569;52.722;6.440;2022-08-18T15:47:02;4.53;;;1.80;;
52674;SDS011;38569;52.722;6.440;2022-08-18T15:49:28;2.63;;;1.42;;
52674;SDS011;38569;52.722;6.440;2022-08-18T15:51:56;2.25;;;1.42;;
52674;SDS011;38569;52.722;6.440;2022-08-18T15:54:22;3.03;;;1.63;;
52674;SDS011;38569;52.722;6.440;2022-08-18T15:56:48;1.90;;;1.42;;
52674;SDS011;38569;52.722;6.440;2022-08-18T15:59:14;3.03;;;1.50;;
52674;SDS011;38569;52.722;6.440;2022-08-18T16:01:39;4.38;;;2.20;;
52674;SDS011;38569;52.722;6.440;2022-08-18T16:04:06;3.55;;;1.67;;
52674;SDS011;38569;52.722;6.440;2022-08-18T16:06:32;4.85;;;1.60;;
52674;SDS011;38569;52.722;6.440;2022-08-18T16:09:02;4.07;;;1.98;;
52674;SDS011;38569;52.722;6.440;2022-08-18T16:11:28;4.07;;;1.80;;
52674;SDS011;38569;52.722;6.440;2022-08-18T16:13:54;3.00;;;1.70;;
52674;SDS011;38569;52.722;6.440;2022-08-18T16:16:22;5.75;;;1.95;;
52674;SDS011;38569;52.722;6.440;2022-08-18T16:18:49;4.00;;;1.65;;
52674;SDS011;38569;52.722;6.440;2022-08-18T16:21:16;4.40;;;1.63;;
52674;SDS011;38569;52.722;6.440;2022-08-18T16:23:44;4.43;;;2.00;;
52674;SDS011;38569;52.722;6.440;2022-08-18T16:26:15;2.80;;;1.52;;
52674;SDS011;38569;52.722;6.440;2022-08-18T16:28:43;3.08;;;2.03;;
52674;SDS011;38569;52.722;6.440;2022-08-18T16:31:10;3.60;;;1.60;;
52674;SDS011;38569;52.722;6.440;2022-08-18T16:33:41;2.53;;;1.58;;
52674;SDS011;38569;52.722;6.440;2022-08-18T16:36:08;3.22;;;1.40;;
52674;SDS011;38569;52.722;6.440;2022-08-18T16:38:35;3.88;;;1.48;;
52674;SDS011;38569;52.722;6.440;2022-08-18T16:41:12;2.78;;;1.42;;
52674;SDS011;38569;52.722;6.440;2022-08-18T16:43:40;3.90;;;1.55;;
52674;SDS011;38569;52.722;6.440;2022-08-18T16:46:09;3.33;;;1.92;;
52674;SDS011;38569;52.722;6.440;2022-08-18T16:48:36;2.15;;;1.38;;
52674;SDS011;38569;52.722;6.440;2022-08-18T16:51:02;2.78;;;1.60;;
52674;SDS011;38569;52.722;6.440;2022-08-18T16:53:28;2.88;;;1.75;;
52674;SDS011;38569;52.722;6.440;2022-08-18T16:55:54;2.45;;;1.70;;
52674;SDS011;38569;52.722;6.440;2022-08-18T16:58:19;3.85;;;1.85;;
52674;SDS011;38569;52.722;6.440;2022-08-18T17:01:04;3.53;;;2.83;;
52674;SDS011;38569;52.722;6.440;2022-08-18T17:03:48;3.58;;;1.75;;
52674;SDS011;38569;52.722;6.440;2022-08-18T17:08:59;3.80;;;1.98;;
52674;SDS011;38569;52.722;6.440;2022-08-18T17:11:26;3.45;;;1.73;;
52674;SDS011;38569;52.722;6.440;2022-08-18T17:13:53;3.35;;;2.20;;
52674;SDS011;38569;52.722;6.440;2022-08-18T17:16:21;3.08;;;1.70;;
52674;SDS011;38569;52.722;6.440;2022-08-18T17:18:49;2.75;;;1.50;;
52674;SDS011;38569;52.722;6.440;2022-08-18T17:21:16;3.17;;;1.90;;
52674;SDS011;38569;52.722;6.440;2022-08-18T17:23:43;6.30;;;2.00;;
52674;SDS011;38569;52.722;6.440;2022-08-18T17:29:06;3.42;;;1.85;;
52674;SDS011;38569;52.722;6.440;2022-08-18T17:31:41;5.05;;;2.25;;
52674;SDS011;38569;52.722;6.440;2022-08-18T17:34:11;2.60;;;1.52;;
52674;SDS011;38569;52.722;6.440;2022-08-18T17:36:46;3.10;;;2.00;;
52674;SDS011;38569;52.722;6.440;2022-08-18T17:39:18;3.03;;;1.60;;
52674;SDS011;38569;52.722;6.440;2022-08-18T17:42:00;4.32;;;1.70;;
52674;SDS011;38569;52.722;6.440;2022-08-18T17:44:44;3.35;;;1.88;;